createdAt,value
2017-06-24T00:00:42.993Z,54.1
2017-06-24T00:01:45.061Z,54
2017-06-24T00:02:47.122Z,54
2017-06-24T00:03:49.184Z,54.1
2017-06-24T00:04:51.245Z,54
2017-06-24T00:05:53.299Z,54.1
2017-06-24T00:06:55.368Z,54
2017-06-24T00:07:57.438Z,54
2017-06-24T00:08:59.502Z,54
2017-06-24T00:10:01.551Z,54
2017-06-24T00:11:03.620Z,54
2017-06-24T00:12:05.691Z,54
2017-06-24T00:13:08.089Z,54
2017-06-24T00:14:10.698Z,54
2017-06-24T00:15:12.761Z,54
2017-06-24T00:16:15.163Z,54
2017-06-24T00:17:17.211Z,54.1
2017-06-24T00:18:19.278Z,54.2
2017-06-24T00:19:21.360Z,54.1
2017-06-24T00:20:23.419Z,54.1
2017-06-24T00:21:25.814Z,54.1
2017-06-24T00:22:27.881Z,54.1
2017-06-24T00:23:29.945Z,54.1
2017-06-24T00:24:32.007Z,54.1
2017-06-24T00:25:34.070Z,54.2
2017-06-24T00:26:36.483Z,54.1
2017-06-24T00:27:38.534Z,54.1
2017-06-24T00:28:40.937Z,54.1
2017-06-24T00:29:43.352Z,54
2017-06-24T00:30:45.420Z,54
2017-06-24T00:31:47.501Z,54
2017-06-24T00:32:49.561Z,54
2017-06-24T00:33:51.824Z,54
2017-06-24T00:34:53.895Z,54.1
2017-06-24T00:35:56.298Z,54.1
2017-06-24T00:36:58.361Z,54.1
2017-06-24T00:38:00.430Z,54.1
2017-06-24T00:39:02.500Z,54.1
2017-06-24T00:40:04.588Z,54.1
2017-06-24T00:41:07.005Z,54.2
2017-06-24T00:42:09.075Z,54.1
2017-06-24T00:43:11.499Z,54.2
2017-06-24T00:44:13.932Z,54.2
2017-06-24T00:45:15.997Z,54.2
2017-06-24T00:46:18.059Z,54.3
2017-06-24T00:47:20.125Z,54.3
2017-06-24T00:48:22.187Z,54.3
2017-06-24T00:49:24.254Z,54.3
2017-06-24T00:50:26.304Z,54.3
2017-06-24T00:51:28.388Z,54.3
2017-06-24T00:52:30.440Z,54.3
2017-06-24T00:53:32.513Z,54.3
2017-06-24T00:54:34.600Z,54.3
2017-06-24T00:55:36.671Z,54.3
2017-06-24T00:56:38.736Z,54.3
2017-06-24T00:57:40.793Z,54.3
2017-06-24T00:58:43.241Z,54.2
2017-06-24T00:59:45.661Z,54.3
2017-06-24T01:00:47.722Z,54.4
2017-06-24T01:01:49.775Z,54.2
2017-06-24T01:02:52.177Z,54.4
2017-06-24T01:03:54.588Z,54.3
2017-06-24T01:04:56.648Z,54.5
2017-06-24T01:05:58.703Z,54.4
2017-06-24T01:07:00.778Z,54.4
2017-06-24T01:08:02.836Z,54.4
2017-06-24T01:09:04.905Z,54.4
2017-06-24T01:10:06.970Z,54.4
2017-06-24T01:11:09.039Z,54.6
2017-06-24T01:12:11.091Z,54.5
2017-06-24T01:13:13.160Z,54.5
2017-06-24T01:14:15.222Z,54.5
2017-06-24T01:15:17.294Z,54.5
2017-06-24T01:16:20.026Z,54.5
2017-06-24T01:17:22.093Z,54.5
2017-06-24T01:18:24.161Z,54.5
2017-06-24T01:19:26.226Z,54.4
2017-06-24T01:20:28.630Z,54.4
2017-06-24T01:21:30.691Z,54.4
2017-06-24T01:22:33.119Z,54.5
2017-06-24T01:23:35.166Z,54.4
2017-06-24T01:24:37.231Z,54.4
2017-06-24T01:25:39.304Z,54.5
2017-06-24T01:26:41.360Z,54.5
2017-06-24T01:27:44.314Z,54.5
2017-06-24T01:28:46.381Z,54.4
2017-06-24T01:29:48.439Z,54.5
2017-06-24T01:30:50.498Z,54.5
2017-06-24T01:31:52.903Z,54.6
2017-06-24T01:32:54.980Z,54.6
2017-06-24T01:33:57.384Z,54.5
2017-06-24T01:34:59.445Z,54.7
2017-06-24T01:36:01.512Z,54.9
2017-06-24T01:37:03.570Z,54.8
2017-06-24T01:38:05.630Z,54.8
2017-06-24T01:39:08.034Z,54.6
2017-06-24T01:40:10.112Z,54.8
2017-06-24T01:41:12.169Z,54.8
2017-06-24T01:42:14.581Z,54.8
2017-06-24T01:43:16.642Z,54.8
2017-06-24T01:44:18.699Z,54.7
2017-06-24T01:45:21.119Z,54.6
2017-06-24T01:46:23.524Z,54.7
2017-06-24T01:47:25.591Z,54.5
2017-06-24T01:48:27.656Z,54.6
2017-06-24T01:49:29.713Z,54.7
2017-06-24T01:50:31.776Z,54.6
2017-06-24T01:51:33.835Z,54.6
2017-06-24T01:52:35.914Z,54.7
2017-06-24T01:53:37.982Z,54.7
2017-06-24T01:54:40.034Z,54.8
2017-06-24T01:55:42.436Z,54.7
2017-06-24T01:56:44.837Z,54.7
2017-06-24T01:57:46.913Z,54.6
2017-06-24T01:58:48.964Z,54.6
2017-06-24T01:59:51.029Z,54.7
2017-06-24T02:00:53.101Z,54.6
2017-06-24T02:01:55.506Z,54.7
2017-06-24T02:02:57.575Z,54.8
2017-06-24T02:03:59.969Z,54.8
2017-06-24T02:05:02.036Z,54.8
2017-06-24T02:06:04.126Z,54.8
2017-06-24T02:07:06.169Z,54.8
2017-06-24T02:08:08.242Z,54.7
2017-06-24T02:09:10.301Z,54.7
2017-06-24T02:10:12.378Z,54.6
2017-06-24T02:11:14.436Z,54.7
2017-06-24T02:12:16.522Z,54.8
2017-06-24T02:13:18.583Z,54.7
2017-06-24T02:14:20.986Z,54.8
2017-06-24T02:15:23.035Z,54.8
2017-06-24T02:16:25.445Z,54.8
2017-06-24T02:17:27.533Z,54.9
2017-06-24T02:18:29.591Z,54.9
2017-06-24T02:19:31.993Z,54.9
2017-06-24T02:20:34.066Z,54.8
2017-06-24T02:21:36.125Z,54.8
2017-06-24T02:22:38.194Z,54.6
2017-06-24T02:23:40.253Z,54.6
2017-06-24T02:24:42.669Z,54.7
2017-06-24T02:25:44.730Z,54.6
2017-06-24T02:26:47.147Z,54.6
2017-06-24T02:27:49.226Z,54.5
2017-06-24T02:28:51.292Z,54.6
2017-06-24T02:29:53.343Z,54.7
2017-06-24T02:30:55.419Z,54.6
2017-06-24T02:31:57.482Z,54.7
2017-06-24T02:32:59.545Z,54.7
2017-06-24T02:34:01.608Z,54.6
2017-06-24T02:35:03.671Z,54.6
2017-06-24T02:36:05.736Z,54.5
2017-06-24T02:37:07.802Z,54.6
2017-06-24T02:38:09.867Z,54.7
2017-06-24T02:39:11.926Z,54.7
2017-06-24T02:40:14.322Z,54.8
2017-06-24T02:41:16.597Z,54.8
2017-06-24T02:42:18.658Z,54.8
2017-06-24T02:43:20.726Z,54.9
2017-06-24T02:44:22.791Z,54.9
2017-06-24T02:45:24.865Z,54.9
2017-06-24T02:46:27.289Z,54.9
2017-06-24T02:47:29.362Z,54.9
2017-06-24T02:48:31.421Z,54.9
2017-06-24T02:49:33.497Z,54.9
2017-06-24T02:50:35.910Z,54.9
2017-06-24T02:51:37.988Z,54.9
2017-06-24T02:52:40.053Z,54.8
2017-06-24T02:53:42.122Z,54.8
2017-06-24T02:54:44.175Z,54.8
2017-06-24T02:55:46.246Z,54.9
2017-06-24T02:56:48.301Z,54.9
2017-06-24T02:57:50.698Z,54.9
2017-06-24T02:58:52.764Z,54.9
2017-06-24T02:59:54.826Z,54.8
2017-06-24T03:00:56.901Z,54.8
2017-06-24T03:01:58.963Z,54.8
2017-06-24T03:03:01.015Z,54.8
2017-06-24T03:04:03.098Z,54.8
2017-06-24T03:05:05.156Z,54.8
2017-06-24T03:06:07.228Z,54.8
2017-06-24T03:07:09.293Z,54.8
2017-06-24T03:08:11.689Z,54.8
2017-06-24T03:09:13.761Z,54.8
2017-06-24T03:10:16.350Z,54.8
2017-06-24T03:11:18.423Z,54.8
2017-06-24T03:12:20.498Z,54.8
2017-06-24T03:13:22.557Z,54.8
2017-06-24T03:14:24.963Z,54.8
2017-06-24T03:15:27.023Z,54.8
2017-06-24T03:16:29.090Z,54.8
2017-06-24T03:17:31.165Z,54.8
2017-06-24T03:18:33.238Z,54.8
2017-06-24T03:19:35.288Z,54.8
2017-06-24T03:20:37.346Z,54.8
2017-06-24T03:21:39.769Z,54.8
2017-06-24T03:22:41.826Z,54.8
2017-06-24T03:23:44.245Z,54.8
2017-06-24T03:24:46.315Z,54.8
2017-06-24T03:25:48.744Z,54.8
2017-06-24T03:26:50.807Z,54.8
2017-06-24T03:27:52.859Z,54.8
2017-06-24T03:28:54.938Z,54.8
2017-06-24T03:29:57.022Z,54.8
2017-06-24T03:30:59.076Z,54.8
2017-06-24T03:32:01.142Z,54.8
2017-06-24T03:33:03.216Z,54.8
2017-06-24T03:34:05.283Z,54.8
2017-06-24T03:35:07.351Z,54.8
2017-06-24T03:36:09.429Z,54.8
2017-06-24T03:37:11.499Z,54.8
2017-06-24T03:38:13.565Z,54.8
2017-06-24T03:39:15.626Z,54.8
2017-06-24T03:40:17.690Z,54.8
2017-06-24T03:41:20.100Z,54.8
2017-06-24T03:42:22.157Z,54.8
2017-06-24T03:43:24.230Z,54.8
2017-06-24T03:44:26.302Z,54.8
2017-06-24T03:45:28.386Z,54.8
2017-06-24T03:46:30.446Z,54.8
2017-06-24T03:47:32.850Z,54.8
2017-06-24T03:48:34.917Z,54.8
2017-06-24T03:49:36.992Z,54.8
2017-06-24T03:50:39.379Z,54.8
2017-06-24T03:51:41.466Z,54.8
2017-06-24T03:52:43.892Z,54.8
2017-06-24T03:53:45.962Z,54.8
2017-06-24T03:54:48.042Z,54.8
2017-06-24T03:55:50.452Z,54.8
2017-06-24T03:56:52.518Z,54.8
2017-06-24T03:57:54.588Z,54.8
2017-06-24T03:58:56.853Z,54.8
2017-06-24T03:59:58.938Z,54.8
2017-06-24T04:01:00.983Z,54.8
2017-06-24T04:02:03.060Z,54.8
2017-06-24T04:03:05.132Z,54.8
2017-06-24T04:04:07.203Z,54.8
2017-06-24T04:05:09.269Z,54.8
2017-06-24T04:06:11.857Z,54.8
2017-06-24T04:07:13.925Z,54.8
2017-06-24T04:08:15.986Z,54.8
2017-06-24T04:09:18.037Z,54.8
2017-06-24T04:10:20.112Z,54.8
2017-06-24T04:11:22.170Z,54.8
2017-06-24T04:12:24.238Z,54.8
2017-06-24T04:13:26.308Z,54.8
2017-06-24T04:14:28.379Z,54.8
2017-06-24T04:15:30.443Z,54.8
2017-06-24T04:16:32.511Z,54.8
2017-06-24T04:17:34.575Z,54.8
2017-06-24T04:18:36.652Z,54.8
2017-06-24T04:19:38.722Z,54.8
2017-06-24T04:20:40.799Z,54.8
2017-06-24T04:21:42.855Z,54.8
2017-06-24T04:22:44.925Z,54.8
2017-06-24T04:23:46.990Z,54.8
2017-06-24T04:24:49.054Z,54.8
2017-06-24T04:25:51.461Z,54.8
2017-06-24T04:26:53.865Z,54.8
2017-06-24T04:27:55.915Z,54.8
2017-06-24T04:28:57.986Z,54.9
2017-06-24T04:30:00.044Z,54.9
2017-06-24T04:31:02.470Z,54.8
2017-06-24T04:32:04.542Z,54.9
2017-06-24T04:33:06.596Z,54.8
2017-06-24T04:34:08.663Z,54.9
2017-06-24T04:35:10.729Z,54.8
2017-06-24T04:36:12.791Z,54.8
2017-06-24T04:37:14.859Z,54.8
2017-06-24T04:38:16.924Z,54.8
2017-06-24T04:39:19.007Z,54.9
2017-06-24T04:40:21.060Z,54.8
2017-06-24T04:41:23.129Z,54.9
2017-06-24T04:42:25.214Z,54.9
2017-06-24T04:43:27.273Z,54.8
2017-06-24T04:44:29.685Z,54.8
2017-06-24T04:45:31.750Z,54.8
2017-06-24T04:46:33.815Z,54.7
2017-06-24T04:47:35.882Z,54.8
2017-06-24T04:48:37.943Z,54.6
2017-06-24T04:49:40.019Z,54.8
2017-06-24T04:50:42.106Z,54.8
2017-06-24T04:51:44.495Z,54.7
2017-06-24T04:52:46.558Z,54.7
2017-06-24T04:53:48.623Z,54.8
2017-06-24T04:54:50.689Z,54.7
2017-06-24T04:55:52.758Z,54.8
2017-06-24T04:56:54.825Z,54.8
2017-06-24T04:57:56.893Z,54.8
2017-06-24T04:58:59.481Z,54.9
2017-06-24T05:00:01.552Z,54.9
2017-06-24T05:01:04.001Z,54.9
2017-06-24T05:02:06.064Z,54.9
2017-06-24T05:03:08.133Z,54.9
2017-06-24T05:04:10.199Z,54.9
2017-06-24T05:05:12.263Z,54.9
2017-06-24T05:06:14.526Z,54.9
2017-06-24T05:07:16.940Z,54.9
2017-06-24T05:08:19.175Z,54.9
2017-06-24T05:09:21.461Z,55
2017-06-24T05:10:23.536Z,54.9
2017-06-24T05:11:25.622Z,55
2017-06-24T05:12:27.706Z,54.9
2017-06-24T05:13:29.767Z,55
2017-06-24T05:14:31.841Z,55
2017-06-24T05:15:33.931Z,55
2017-06-24T05:16:35.999Z,55
2017-06-24T05:17:38.076Z,55
2017-06-24T05:18:40.160Z,55
2017-06-24T05:19:42.233Z,55
2017-06-24T05:20:44.290Z,55
2017-06-24T05:21:46.383Z,55
2017-06-24T05:22:48.495Z,55
2017-06-24T05:23:50.587Z,55.1
2017-06-24T05:24:52.651Z,55.1
2017-06-24T05:25:54.734Z,55.1
2017-06-24T05:26:56.804Z,55.1
2017-06-24T05:27:58.888Z,55.1
2017-06-24T05:29:01.211Z,55.1
2017-06-24T05:30:03.307Z,55.1
2017-06-24T05:31:05.402Z,55.1
2017-06-24T05:32:09.399Z,55.1
2017-06-24T05:33:12.858Z,55.1
2017-06-24T05:34:15.649Z,55.1
2017-06-24T05:35:17.931Z,55.1
2017-06-24T05:36:20.037Z,55.2
2017-06-24T05:37:22.555Z,55.2
2017-06-24T05:38:26.458Z,55.2
2017-06-24T05:39:30.451Z,55.2
2017-06-24T05:40:33.039Z,55.2
2017-06-24T05:41:35.374Z,55.2
2017-06-24T05:42:37.481Z,55.2
2017-06-24T05:43:39.600Z,55.2
2017-06-24T05:44:41.680Z,55
2017-06-24T05:45:43.777Z,55
2017-06-24T05:46:45.872Z,54.8
2017-06-24T05:47:47.937Z,54.7
2017-06-24T05:48:50.046Z,54.7
2017-06-24T05:49:52.350Z,54.6
2017-06-24T05:50:54.541Z,54.6
2017-06-24T05:51:57.074Z,54.5
2017-06-24T05:53:00.339Z,54.4
2017-06-24T05:54:02.994Z,54.4
2017-06-24T05:55:05.627Z,54.3
2017-06-24T05:56:07.867Z,54.3
2017-06-24T05:57:10.006Z,54.3
2017-06-24T05:58:12.301Z,54
2017-06-24T05:59:14.922Z,54.1
2017-06-24T06:00:18.679Z,54.1
2017-06-24T06:01:20.759Z,54
2017-06-24T06:02:22.919Z,54
2017-06-24T06:03:25.346Z,53.9
2017-06-24T06:04:27.405Z,54
2017-06-24T06:05:29.495Z,53.8
2017-06-24T06:06:31.560Z,53.8
2017-06-24T06:07:33.651Z,53.8
2017-06-24T06:08:35.727Z,53.7
2017-06-24T06:09:37.807Z,53.6
2017-06-24T06:10:40.258Z,53.6
2017-06-24T06:11:42.336Z,53.7
2017-06-24T06:12:44.392Z,53.6
2017-06-24T06:13:46.481Z,53.5
2017-06-24T06:14:48.551Z,53.4
2017-06-24T06:15:50.636Z,53.4
2017-06-24T06:16:52.710Z,53.4
2017-06-24T06:17:54.898Z,53.3
2017-06-24T06:18:56.969Z,53.4
2017-06-24T06:19:59.474Z,53.3
2017-06-24T06:21:01.552Z,53.4
2017-06-24T06:22:03.649Z,53.4
2017-06-24T06:23:05.953Z,53.3
2017-06-24T06:24:08.039Z,53.3
2017-06-24T06:25:10.141Z,53.3
2017-06-24T06:26:12.222Z,53.3
2017-06-24T06:27:14.816Z,53.3
2017-06-24T06:28:16.885Z,53.3
2017-06-24T06:29:19.322Z,53.3
2017-06-24T06:30:21.395Z,53.1
2017-06-24T06:31:23.488Z,53.1
2017-06-24T06:32:25.560Z,53.2
2017-06-24T06:33:27.663Z,53.1
2017-06-24T06:34:30.417Z,53
2017-06-24T06:35:32.496Z,53
2017-06-24T06:36:34.608Z,53
2017-06-24T06:37:36.697Z,52.9
2017-06-24T06:38:38.759Z,52.9
2017-06-24T06:39:40.835Z,52.9
2017-06-24T06:40:42.902Z,53
2017-06-24T06:41:45.000Z,52.9
2017-06-24T06:42:47.424Z,52.9
2017-06-24T06:43:49.838Z,52.9
2017-06-24T06:44:51.914Z,52.9
2017-06-24T06:45:53.975Z,52.9
2017-06-24T06:46:56.252Z,52.9
2017-06-24T06:47:58.680Z,53
2017-06-24T06:49:00.733Z,53
2017-06-24T06:50:02.808Z,53
2017-06-24T06:51:04.884Z,53
2017-06-24T06:52:06.966Z,53
2017-06-24T06:53:09.033Z,53
2017-06-24T06:54:11.109Z,53
2017-06-24T06:55:13.191Z,53
2017-06-24T06:56:15.838Z,53.1
2017-06-24T06:57:17.911Z,53
2017-06-24T06:58:19.986Z,53.2
2017-06-24T06:59:22.056Z,53.2
2017-06-24T07:00:24.479Z,53.2
2017-06-24T07:01:26.550Z,53.3
2017-06-24T07:02:28.632Z,53.2
2017-06-24T07:03:30.706Z,53.2
2017-06-24T07:04:32.792Z,53.2
2017-06-24T07:05:35.215Z,53.2
2017-06-24T07:06:37.285Z,53.1
2017-06-24T07:07:39.378Z,53.2
2017-06-24T07:08:41.444Z,53.2
2017-06-24T07:09:43.526Z,53.2
2017-06-24T07:10:46.004Z,53.2
2017-06-24T07:11:48.626Z,53.2
2017-06-24T07:12:50.723Z,53.2
2017-06-24T07:13:52.804Z,53.2
2017-06-24T07:14:54.882Z,53.2
2017-06-24T07:15:56.947Z,53.2
2017-06-24T07:16:59.016Z,53.1
2017-06-24T07:18:01.103Z,53.2
2017-06-24T07:19:03.150Z,53.1
2017-06-24T07:20:05.233Z,53.1
2017-06-24T07:21:07.657Z,53.1
2017-06-24T07:22:09.731Z,53.1
2017-06-24T07:23:11.825Z,52.9
2017-06-24T07:24:13.891Z,53
2017-06-24T07:25:15.959Z,52.9
2017-06-24T07:26:18.363Z,52.9
2017-06-24T07:27:20.428Z,52.8
2017-06-24T07:28:22.524Z,52.8
2017-06-24T07:29:24.942Z,52.8
2017-06-24T07:30:27.060Z,52.7
2017-06-24T07:31:29.133Z,52.7
2017-06-24T07:32:31.204Z,52.6
2017-06-24T07:33:33.271Z,52.5
2017-06-24T07:34:35.353Z,52.4
2017-06-24T07:35:37.415Z,52.4
2017-06-24T07:36:39.502Z,52.2
2017-06-24T07:37:41.560Z,52.2
2017-06-24T07:38:43.626Z,52.1
2017-06-24T07:39:45.695Z,52
2017-06-24T07:40:47.772Z,52
2017-06-24T07:41:49.853Z,52
2017-06-24T07:42:51.921Z,52
2017-06-24T07:43:53.983Z,51.9
2017-06-24T07:44:56.069Z,51.9
2017-06-24T07:45:58.136Z,51.9
2017-06-24T07:47:00.541Z,51.7
2017-06-24T07:48:02.613Z,51.8
2017-06-24T07:49:04.697Z,51.8
2017-06-24T07:50:06.770Z,51.7
2017-06-24T07:51:08.846Z,51.7
2017-06-24T07:52:11.261Z,51.7
2017-06-24T07:53:13.342Z,51.7
2017-06-24T07:54:15.401Z,51.6
2017-06-24T07:55:17.475Z,51.6
2017-06-24T07:56:19.546Z,51.6
2017-06-24T07:57:21.623Z,51.6
2017-06-24T07:58:23.690Z,51.6
2017-06-24T07:59:25.759Z,51.5
2017-06-24T08:00:28.173Z,51.5
2017-06-24T08:01:30.247Z,51.5
2017-06-24T08:02:32.308Z,51.4
2017-06-24T08:03:34.398Z,51.4
2017-06-24T08:04:36.469Z,51.5
2017-06-24T08:05:38.541Z,51.4
2017-06-24T08:06:40.617Z,51.5
2017-06-24T08:07:42.692Z,51.4
2017-06-24T08:08:44.757Z,51.4
2017-06-24T08:09:46.833Z,51.4
2017-06-24T08:10:48.903Z,51.4
2017-06-24T08:11:50.986Z,51.5
2017-06-24T08:12:53.054Z,51.6
2017-06-24T08:13:55.123Z,51.5
2017-06-24T08:14:57.192Z,51.5
2017-06-24T08:15:59.265Z,51.5
2017-06-24T08:17:01.336Z,51.5
2017-06-24T08:18:03.408Z,51.5
2017-06-24T08:19:05.835Z,51.5
2017-06-24T08:20:07.917Z,51.5
2017-06-24T08:21:10.351Z,51.5
2017-06-24T08:22:12.422Z,51.4
2017-06-24T08:23:14.487Z,51.3
2017-06-24T08:24:16.904Z,51.4
2017-06-24T08:25:19.374Z,51.2
2017-06-24T08:26:21.449Z,51.4
2017-06-24T08:27:23.554Z,51.2
2017-06-24T08:28:25.635Z,51.3
2017-06-24T08:29:27.757Z,51.3
2017-06-24T08:30:29.831Z,51.2
2017-06-24T08:31:31.899Z,51.1
2017-06-24T08:32:33.985Z,51
2017-06-24T08:33:36.061Z,51
2017-06-24T08:34:38.120Z,50.8
2017-06-24T08:35:40.207Z,51
2017-06-24T08:36:42.282Z,51
2017-06-24T08:37:44.693Z,50.9
2017-06-24T08:38:46.775Z,50.9
2017-06-24T08:39:48.847Z,50.8
2017-06-24T08:40:50.921Z,50.8
2017-06-24T08:41:53.342Z,50.8
2017-06-24T08:42:55.409Z,50.8
2017-06-24T08:43:57.516Z,50.8
2017-06-24T08:44:59.583Z,50.8
2017-06-24T08:46:02.009Z,50.8
2017-06-24T08:47:04.087Z,50.8
2017-06-24T08:48:06.153Z,50.8
2017-06-24T08:49:08.221Z,50.9
2017-06-24T08:50:10.291Z,50.8
2017-06-24T08:51:12.374Z,50.8
2017-06-24T08:52:14.446Z,50.8
2017-06-24T08:53:16.502Z,50.8
2017-06-24T08:54:18.780Z,50.8
2017-06-24T08:55:21.202Z,50.7
2017-06-24T08:56:23.285Z,50.8
2017-06-24T08:57:25.359Z,50.9
2017-06-24T08:58:27.461Z,50.8
2017-06-24T08:59:29.552Z,50.7
2017-06-24T09:00:31.662Z,50.7
2017-06-24T09:01:33.740Z,50.6
2017-06-24T09:02:35.849Z,50.6
2017-06-24T09:03:37.967Z,50.7
2017-06-24T09:04:40.050Z,50.7
2017-06-24T09:05:42.123Z,50.6
2017-06-24T09:06:44.194Z,50.7
2017-06-24T09:07:46.276Z,50.7
2017-06-24T09:08:48.358Z,50.7
2017-06-24T09:09:50.753Z,50.7
2017-06-24T09:10:53.172Z,50.7
2017-06-24T09:11:55.277Z,50.7
2017-06-24T09:12:57.343Z,50.6
2017-06-24T09:13:59.422Z,50.6
2017-06-24T09:15:01.535Z,50.5
2017-06-24T09:16:03.939Z,50.5
2017-06-24T09:17:06.012Z,50.5
2017-06-24T09:18:08.438Z,50.4
2017-06-24T09:19:10.511Z,50.4
2017-06-24T09:20:12.589Z,50.4
2017-06-24T09:21:15.022Z,50.4
2017-06-24T09:22:17.083Z,50.5
2017-06-24T09:23:19.371Z,50.4
2017-06-24T09:24:21.427Z,50.5
2017-06-24T09:25:23.512Z,50.5
2017-06-24T09:26:25.578Z,50.6
2017-06-24T09:27:27.648Z,50.5
2017-06-24T09:28:29.730Z,50.5
2017-06-24T09:29:31.804Z,50.7
2017-06-24T09:30:33.869Z,50.6
2017-06-24T09:31:35.956Z,50.7
2017-06-24T09:32:38.064Z,50.7
2017-06-24T09:33:40.159Z,50.8
2017-06-24T09:34:42.273Z,50.6
2017-06-24T09:35:44.385Z,50.7
2017-06-24T09:36:46.470Z,50.7
2017-06-24T09:37:48.575Z,50.7
2017-06-24T09:38:50.675Z,50.8
2017-06-24T09:39:52.756Z,50.8
2017-06-24T09:40:54.843Z,50.8
2017-06-24T09:41:57.243Z,50.8
2017-06-24T09:42:59.327Z,50.5
2017-06-24T09:44:01.406Z,50.7
2017-06-24T09:45:03.481Z,50.8
2017-06-24T09:46:05.914Z,50.7
2017-06-24T09:47:07.986Z,50.7
2017-06-24T09:48:10.067Z,50.7
2017-06-24T09:49:12.140Z,50.7
2017-06-24T09:50:14.199Z,50.6
2017-06-24T09:51:16.282Z,50.6
2017-06-24T09:52:18.357Z,50.8
2017-06-24T09:53:20.429Z,50.8
2017-06-24T09:54:22.496Z,50.8
2017-06-24T09:55:24.912Z,50.8
2017-06-24T09:56:26.987Z,50.5
2017-06-24T09:57:29.381Z,50.6
2017-06-24T09:58:31.456Z,50.8
2017-06-24T09:59:33.537Z,50.8
2017-06-24T10:00:35.609Z,50.8
2017-06-24T10:01:37.683Z,50.8
2017-06-24T10:02:39.762Z,50.7
2017-06-24T10:03:41.841Z,50.8
2017-06-24T10:04:43.916Z,50.8
2017-06-24T10:05:46.325Z,50.8
2017-06-24T10:06:48.405Z,50.8
2017-06-24T10:07:50.477Z,50.8
2017-06-24T10:08:52.552Z,50.8
2017-06-24T10:09:54.633Z,50.8
2017-06-24T10:10:56.700Z,50.7
2017-06-24T10:11:59.113Z,50.6
2017-06-24T10:13:01.525Z,50.5
2017-06-24T10:14:03.585Z,50.7
2017-06-24T10:15:05.660Z,50.6
2017-06-24T10:16:07.749Z,50.7
2017-06-24T10:17:09.830Z,50.6
2017-06-24T10:18:11.905Z,50.6
2017-06-24T10:19:13.968Z,50.4
2017-06-24T10:20:16.053Z,50.7
2017-06-24T10:21:18.128Z,50.7
2017-06-24T10:22:20.197Z,50.7
2017-06-24T10:23:22.293Z,50.7
2017-06-24T10:24:24.362Z,50.7
2017-06-24T10:25:26.424Z,50.6
2017-06-24T10:26:28.491Z,50.6
2017-06-24T10:27:30.566Z,50.7
2017-06-24T10:28:32.642Z,50.6
2017-06-24T10:29:34.708Z,50.6
2017-06-24T10:30:36.800Z,50.6
2017-06-24T10:31:38.870Z,50.7
2017-06-24T10:32:40.944Z,50.6
2017-06-24T10:33:43.356Z,50.7
2017-06-24T10:34:45.429Z,50.8
2017-06-24T10:35:47.512Z,50.7
2017-06-24T10:36:49.592Z,50.8
2017-06-24T10:37:52.009Z,50.6
2017-06-24T10:38:54.086Z,50.7
2017-06-24T10:39:56.838Z,50.7
2017-06-24T10:40:58.909Z,50.7
2017-06-24T10:42:00.986Z,50.8
2017-06-24T10:43:03.068Z,50.8
2017-06-24T10:44:05.144Z,50.7
2017-06-24T10:45:07.211Z,50.8
2017-06-24T10:46:09.282Z,50.7
2017-06-24T10:47:11.349Z,50.7
2017-06-24T10:48:13.770Z,50.7
2017-06-24T10:49:15.831Z,50.7
2017-06-24T10:50:17.905Z,50.7
2017-06-24T10:51:19.984Z,50.7
2017-06-24T10:52:22.064Z,50.7
2017-06-24T10:53:24.132Z,50.7
2017-06-24T10:54:26.206Z,50.7
2017-06-24T10:55:28.270Z,50.5
2017-06-24T10:56:30.350Z,50.5
2017-06-24T10:57:32.415Z,50.5
2017-06-24T10:58:34.494Z,50.6
2017-06-24T10:59:36.571Z,50.5
2017-06-24T11:00:38.657Z,50.7
2017-06-24T11:01:40.728Z,50.7
2017-06-24T11:02:42.999Z,51.2
2017-06-24T11:03:45.410Z,51
2017-06-24T11:04:47.488Z,50.9
2017-06-24T11:05:49.549Z,51.3
2017-06-24T11:06:51.627Z,51.5
2017-06-24T11:07:53.713Z,51.5
2017-06-24T11:08:55.773Z,51.5
2017-06-24T11:09:57.844Z,51.4
2017-06-24T11:11:00.297Z,51.3
2017-06-24T11:12:02.711Z,51.3
2017-06-24T11:13:04.916Z,51.4
2017-06-24T11:14:07.002Z,51.3
2017-06-24T11:15:09.094Z,51.1
2017-06-24T11:16:11.198Z,51
2017-06-24T11:17:13.474Z,50.8
2017-06-24T11:18:15.590Z,50.8
2017-06-24T11:19:17.867Z,50.8
2017-06-24T11:20:19.919Z,50.9
2017-06-24T11:21:22.019Z,51.2
2017-06-24T11:22:24.182Z,50.9
2017-06-24T11:23:26.270Z,50.8
2017-06-24T11:24:28.355Z,50.8
2017-06-24T11:25:30.596Z,50.8
2017-06-24T11:26:32.687Z,50.6
2017-06-24T11:27:34.759Z,50.5
2017-06-24T11:28:36.834Z,50.3
2017-06-24T11:29:38.926Z,50.2
2017-06-24T11:30:41.133Z,50.2
2017-06-24T11:31:43.212Z,50.1
2017-06-24T11:32:45.291Z,50.2
2017-06-24T11:34:45.123Z,50.1
2017-06-24T11:35:47.164Z,50
2017-06-24T11:36:49.574Z,50.2
2017-06-24T11:37:51.606Z,50.2
2017-06-24T11:38:53.639Z,50.2
2017-06-24T11:39:55.677Z,50.2
2017-06-24T11:40:57.709Z,50.2
2017-06-24T11:42:00.082Z,50.2
2017-06-24T11:43:02.272Z,50.2
2017-06-24T11:44:04.944Z,50.2
2017-06-24T11:45:07.151Z,50
2017-06-24T11:46:09.362Z,49.9
2017-06-24T11:47:12.758Z,49.8
2017-06-24T11:48:16.968Z,49.6
2017-06-24T11:49:22.788Z,49.7
2017-06-24T11:50:29.415Z,49.7
2017-06-24T11:51:39.066Z,49.6
2017-06-24T11:52:44.919Z,49.7
2017-06-24T11:53:49.746Z,49.7
2017-06-24T11:54:52.940Z,49.5
2017-06-24T11:55:55.837Z,49.5
2017-06-24T11:56:59.055Z,49.6
2017-06-24T11:58:04.394Z,49.7
2017-06-24T11:59:07.393Z,49.7
2017-06-24T12:00:09.872Z,49.8
2017-06-24T12:01:12.589Z,49.8
2017-06-24T12:02:15.223Z,49.9
2017-06-24T12:03:17.728Z,49.9
2017-06-24T12:04:20.937Z,50
2017-06-24T12:05:23.552Z,50.1
2017-06-24T12:06:26.125Z,50.2
2017-06-24T12:07:29.804Z,50.5
2017-06-24T12:08:32.528Z,50.7
2017-06-24T12:09:35.065Z,50.9
2017-06-24T12:10:37.515Z,50.8
2017-06-24T12:11:39.892Z,50.8
2017-06-24T12:12:43.221Z,50.8
2017-06-24T12:13:45.524Z,50.4
2017-06-24T12:14:47.959Z,50.4
2017-06-24T12:15:50.498Z,50.2
2017-06-24T12:16:53.211Z,50.2
2017-06-24T12:17:55.753Z,50.3
2017-06-24T12:18:58.249Z,50.3
2017-06-24T12:20:00.507Z,50.3
2017-06-24T12:21:02.737Z,50.2
2017-06-24T12:22:05.258Z,50.3
2017-06-24T12:23:08.299Z,50.4
2017-06-24T12:24:11.449Z,50.4
2017-06-24T12:25:13.871Z,50.4
2017-06-24T12:26:16.651Z,50.4
2017-06-24T12:27:21.437Z,50.8
2017-06-24T12:28:26.774Z,50.9
2017-06-24T12:29:32.109Z,50.8
2017-06-24T12:30:36.155Z,50.8
2017-06-24T12:31:39.664Z,50.8
2017-06-24T12:32:44.633Z,50.7
2017-06-24T12:33:50.686Z,50.7
2017-06-24T12:34:54.092Z,50.6
2017-06-24T12:35:56.286Z,50.5
2017-06-24T12:36:58.325Z,50.4
2017-06-24T12:38:00.352Z,50.4
2017-06-24T12:39:02.383Z,50.5
2017-06-24T12:40:05.105Z,50.4
2017-06-24T12:41:07.130Z,50.4
2017-06-24T12:42:09.165Z,50.4
2017-06-24T12:43:11.198Z,50.5
2017-06-24T12:44:13.223Z,50.5
2017-06-24T12:45:15.259Z,50.5
2017-06-24T12:46:17.285Z,50.5
2017-06-24T12:47:19.318Z,50.6
2017-06-24T12:48:21.345Z,50.7
2017-06-24T12:49:23.377Z,50.6
2017-06-24T12:50:25.411Z,50.6
2017-06-24T12:51:27.453Z,50.8
2017-06-24T12:52:29.489Z,50.7
2017-06-24T12:53:31.533Z,50.8
2017-06-24T12:54:33.556Z,50.6
2017-06-24T12:55:35.589Z,50.5
2017-06-24T12:56:37.624Z,50.6
2017-06-24T12:57:39.654Z,50.6
2017-06-24T12:58:41.679Z,50.5
2017-06-24T12:59:43.720Z,50.9
2017-06-24T13:00:46.084Z,50.4
2017-06-24T13:01:48.459Z,50.5
2017-06-24T13:02:50.487Z,50.6
2017-06-24T13:03:52.859Z,50.6
2017-06-24T13:04:54.888Z,50.6
2017-06-24T13:05:57.266Z,50.5
2017-06-24T13:06:59.291Z,50.4
2017-06-24T13:08:02.006Z,50.3
2017-06-24T13:09:04.092Z,50.3
2017-06-24T13:10:06.127Z,50.4
2017-06-24T13:11:08.167Z,50.3
2017-06-24T13:12:10.195Z,50.2
2017-06-24T13:13:12.229Z,50.1
2017-06-24T13:14:14.264Z,50
2017-06-24T13:15:16.300Z,49.8
2017-06-24T13:16:18.336Z,49.7
2017-06-24T13:17:20.358Z,49.6
2017-06-24T13:18:22.393Z,49.6
2017-06-24T13:19:24.417Z,49.7
2017-06-24T13:20:26.800Z,49.6
2017-06-24T13:21:29.179Z,49.7
2017-06-24T13:22:31.209Z,49.7
2017-06-24T13:23:33.240Z,49.7
2017-06-24T13:24:35.270Z,49.6
2017-06-24T13:25:37.301Z,49.6
2017-06-24T13:26:39.328Z,49.6
2017-06-24T13:27:41.347Z,49.5
2017-06-24T13:28:43.372Z,49.5
2017-06-24T13:29:45.942Z,49.5
2017-06-24T13:30:47.973Z,49.4
2017-06-24T13:31:50.203Z,49.5
2017-06-24T13:32:52.243Z,49.8
2017-06-24T13:33:54.285Z,49.6
2017-06-24T13:34:56.647Z,49.6
2017-06-24T13:35:58.674Z,49.6
2017-06-24T13:37:00.715Z,49.6
2017-06-24T13:38:02.739Z,49.4
2017-06-24T13:39:04.771Z,49.4
2017-06-24T13:40:07.010Z,49.4
2017-06-24T13:41:09.045Z,49.4
2017-06-24T13:42:11.067Z,49.6
2017-06-24T13:43:13.103Z,49.8
2017-06-24T13:44:15.135Z,49.7
2017-06-24T13:45:17.163Z,49.8
2017-06-24T13:46:19.187Z,49.8
2017-06-24T13:47:21.214Z,49.8
2017-06-24T13:48:23.279Z,49.8
2017-06-24T13:49:25.302Z,50
2017-06-24T13:50:27.359Z,50
2017-06-24T13:51:29.395Z,49.9
2017-06-24T13:52:31.428Z,49.9
2017-06-24T13:53:33.470Z,50
2017-06-24T13:54:35.531Z,50